Time;durP1;ratioP1;P1;durP2;ratioP2;P2;SDS_P1;SDS_P2;PMS_P1;PMS_P2;Temp;Humidity;BMP_temperature;BMP_pressure;BME280_temperature;BME280_humidity;BME280_pressure;Samples;Min_cycle;Max_cycle;Signal;HPM_P1;HPM_P2
2022/05/14 00:02:14;;;;;;;12.77;8.25;;;;;;;31.35;71.25;100769.06;5046902;28;66011;-40
2022/05/14 00:04:44;;;;;;;18.70;8.63;;;;;;;31.26;71.30;100756.84;5033012;28;69978;-39
2022/05/14 00:07:14;;;;;;;10.68;8.13;;;;;;;31.30;71.38;100758.06;5031808;28;66166;-38
2022/05/14 00:09:44;;;;;;;15.00;9.02;;;;;;;31.44;71.19;100777.75;5019807;28;70210;-38
2022/05/14 00:15:03;;;;;;;13.50;9.82;;;;;;;31.44;73.07;100788.59;5037701;28;70287;-37
2022/05/14 00:17:33;;;;;;;17.88;9.45;;;;;;;31.45;73.84;100791.03;5037894;28;66087;-37
2022/05/14 00:20:04;;;;;;;22.20;9.05;;;;;;;31.49;73.44;100802.28;5032108;28;70108;-40
2022/05/14 00:22:35;;;;;;;11.57;9.30;;;;;;;31.39;74.20;100781.13;5028840;28;65711;-38
2022/05/14 00:25:07;;;;;;;17.38;10.50;;;;;;;31.52;74.55;100796.41;5030803;28;69364;-38
2022/05/14 00:27:45;;;;;;;17.73;9.75;;;;;;;31.48;74.61;100801.47;5039470;28;65946;-40
2022/05/14 00:30:17;;;;;;;21.33;10.15;;;;;;;31.60;73.84;100831.34;5032080;28;70226;-36
2022/05/14 00:32:47;;;;;;;27.67;9.25;;;;;;;31.63;73.58;100819.22;5035919;28;66289;-39
2022/05/14 00:35:18;;;;;;;12.35;8.13;;;;;;;31.64;73.73;100819.00;5031625;28;70200;-39
2022/05/14 00:37:49;;;;;;;13.27;8.82;;;;;;;31.66;73.17;100825.03;5030041;28;66165;-40
2022/05/14 00:40:27;;;;;;;10.13;7.88;;;;;;;31.52;72.93;100813.50;5025444;28;70263;-40
2022/05/14 00:42:59;;;;;;;19.40;9.40;;;;;;;31.45;72.81;100793.75;5033627;28;65772;-40
2022/05/14 00:45:32;;;;;;;15.75;8.10;;;;;;;31.71;73.30;100827.06;5031414;28;70935;-39
2022/05/14 00:48:03;;;;;;;8.70;7.78;;;;;;;31.83;71.58;100826.06;5031593;28;65243;-39
2022/05/14 00:50:53;;;;;;;7.63;6.75;;;;;;;31.88;71.20;100828.09;5021912;28;71543;-39
2022/05/14 00:53:37;;;;;;;11.02;6.45;;;;;;;32.00;70.47;100831.69;5021795;28;66277;-39
2022/05/14 00:56:15;;;;;;;8.07;7.28;;;;;;;32.12;69.71;100844.50;5020249;28;70335;-39
2022/05/14 00:58:56;;;;;;;7.55;6.25;;;;;;;32.18;69.47;100838.13;5022131;28;65944;-39
2022/05/14 01:01:26;;;;;;;8.43;6.60;;;;;;;32.24;68.70;100837.25;5013816;28;69079;-39
2022/05/14 01:03:57;;;;;;;8.55;6.07;;;;;;;32.29;68.33;100850.94;5038769;28;66306;-39
2022/05/14 01:06:29;;;;;;;9.90;6.32;;;;;;;32.33;67.90;100857.56;5038197;28;70022;-38
2022/05/14 01:08:59;;;;;;;8.00;7.27;;;;;;;32.25;67.68;100834.28;5040964;28;65209;-38
2022/05/14 01:11:31;;;;;;;8.85;8.02;;;;;;;32.41;67.34;100851.81;5039919;28;71072;-40
2022/05/14 01:14:03;;;;;;;9.35;8.45;;;;;;;32.40;67.30;100847.44;5038495;28;65400;-39
2022/05/14 01:16:36;;;;;;;9.38;8.55;;;;;;;32.48;66.73;100846.28;5040915;28;70718;-39
2022/05/14 01:19:07;;;;;;;8.83;7.93;;;;;;;32.49;66.61;100840.66;5040362;28;65632;-40
2022/05/14 01:22:17;;;;;;;12.25;8.40;;;;;;;32.44;66.73;100843.19;5039808;28;69352;-38
2022/05/14 01:27:56;;;;;;;8.52;7.68;;;;;;;32.63;65.97;100846.69;5037762;28;70748;-38
2022/05/14 01:30:29;;;;;;;8.23;7.53;;;;;;;32.25;65.68;100780.00;5040409;28;66762;-38
2022/05/14 01:33:06;;;;;;;8.65;7.80;;;;;;;32.68;65.68;100849.56;5039363;28;70122;-37
2022/05/14 01:35:44;;;;;;;8.68;7.82;;;;;;;32.73;65.50;100862.41;5040403;28;66273;-38
2022/05/14 01:38:19;;;;;;;7.63;7.05;;;;;;;32.76;65.23;100851.06;5039398;28;69233;-39
2022/05/14 01:40:49;;;;;;;7.97;7.28;;;;;;;32.78;65.21;100859.00;5040622;28;66580;-38
2022/05/14 01:43:20;;;;;;;7.75;7.10;;;;;;;32.79;64.97;100852.50;5056619;28;69302;-39
2022/05/14 01:45:50;;;;;;;8.02;7.10;;;;;;;32.82;64.87;100863.75;5039708;28;66431;-39
2022/05/14 01:48:21;;;;;;;10.40;7.30;;;;;;;32.75;64.89;100851.31;5039167;28;69550;-39
2022/05/14 01:50:53;;;;;;;;;;;;;;;32.55;65.42;100865.22;5040471;28;66687;-39
2022/05/14 01:53:23;;;;;;;7.28;6.57;;;;;;;32.67;64.67;100836.19;5055584;28;70061;-38
2022/05/14 01:55:53;;;;;;;6.95;6.40;;;;;;;32.57;64.38;100814.19;5055919;28;65657;-38
2022/05/14 01:58:37;;;;;;;7.23;6.73;;;;;;;32.82;64.04;100850.16;5040912;28;70015;-38
2022/05/14 02:01:34;;;;;;;7.47;6.80;;;;;;;32.81;64.57;100867.50;5021708;28;66856;-38
2022/05/14 02:04:09;;;;;;;6.93;6.28;;;;;;;32.86;63.90;100862.19;5038204;28;70166;-38
2022/05/14 02:06:41;;;;;;;7.60;6.80;;;;;;;32.89;63.73;100867.16;5038734;28;66264;-38
2022/05/14 02:09:13;;;;;;;7.13;6.32;;;;;;;32.49;63.72;100797.19;5037984;28;69238;-38
2022/05/14 02:11:49;;;;;;;8.30;6.68;;;;;;;32.86;63.59;100862.19;5037144;28;66666;-38
2022/05/14 02:14:26;;;;;;;7.95;7.13;;;;;;;33.01;63.51;100882.69;5021438;28;70519;-37
2022/05/14 02:16:57;;;;;;;6.68;5.97;;;;;;;32.90;63.51;100868.84;5054713;28;65640;-38
2022/05/14 02:19:30;;;;;;;6.95;6.28;;;;;;;33.04;63.36;100874.91;5038567;28;69735;-39
2022/05/14 02:22:00;;;;;;;8.10;6.85;;;;;;;33.00;63.27;100872.88;5039466;28;66904;-39
2022/05/14 02:24:34;;;;;;;9.45;6.50;;;;;;;33.07;63.06;100869.00;5037196;28;70464;-39
2022/05/14 02:27:05;;;;;;;7.15;6.55;;;;;;;33.10;63.20;100867.69;5039678;28;66009;-39
2022/05/14 02:29:50;;;;;;;6.97;6.28;;;;;;;33.12;62.75;100869.09;5038132;28;70309;-39
2022/05/14 02:32:25;;;;;;;6.85;5.78;;;;;;;33.17;62.54;100868.41;5040382;28;65476;-39
2022/05/14 02:34:57;;;;;;;6.80;6.10;;;;;;;33.18;62.96;100869.22;5038376;28;70165;-38
2022/05/14 02:37:28;;;;;;;7.47;6.05;;;;;;;33.21;62.65;100871.47;5035500;28;65566;-38
2022/05/14 02:39:58;;;;;;;6.68;6.03;;;;;;;33.23;62.57;100867.44;5038700;28;69587;-40
2022/05/14 02:42:29;;;;;;;7.53;6.70;;;;;;;33.25;62.29;100869.94;5039526;28;65358;-38
2022/05/14 02:45:00;;;;;;;6.45;5.75;;;;;;;33.28;62.24;100864.84;5038895;28;69531;-38
2022/05/14 02:47:30;;;;;;;6.32;5.82;;;;;;;33.27;61.95;100863.19;5038820;28;66277;-39
2022/05/14 02:50:00;;;;;;;6.10;5.60;;;;;;;33.32;62.55;100866.03;5039827;28;70139;-39
2022/05/14 02:52:31;;;;;;;6.03;5.57;;;;;;;33.25;62.13;100854.44;5037869;28;66279;-39
2022/05/14 02:55:01;;;;;;;6.18;5.60;;;;;;;33.36;62.05;100869.09;5038524;28;69978;-38
2022/05/14 02:57:32;;;;;;;6.75;5.72;;;;;;;33.37;62.06;100863.41;5036147;28;66360;-39
2022/05/14 03:00:08;;;;;;;6.50;5.97;;;;;;;33.40;61.85;100870.28;5035324;28;70633;-39
2022/05/14 03:02:38;;;;;;;7.45;5.88;;;;;;;33.37;61.47;100862.59;5040272;28;65674;-40
2022/05/14 03:05:12;;;;;;;6.43;5.93;;;;;;;32.61;61.85;100742.06;5020409;28;69160;-39
2022/05/14 03:07:44;;;;;;;6.45;5.88;;;;;;;33.38;61.74;100870.53;5022210;28;65828;-40
2022/05/14 03:10:15;;;;;;;5.88;5.38;;;;;;;33.40;61.66;100866.72;5054701;28;70524;-39
2022/05/14 03:12:46;;;;;;;5.40;4.95;;;;;;;33.29;61.74;100842.06;5037011;28;66672;-39
2022/05/14 03:15:16;;;;;;;6.95;5.78;;;;;;;33.25;61.55;100842.75;5039133;28;70622;-42
2022/05/14 03:17:47;;;;;;;7.22;5.65;;;;;;;33.41;61.61;100868.41;5040000;28;65536;-38
2022/05/14 03:20:17;;;;;;;5.78;5.20;;;;;;;33.31;61.43;100845.34;5038665;28;70305;-43
2022/05/14 03:22:47;;;;;;;6.40;5.80;;;;;;;33.43;61.61;100861.63;5038409;28;66750;-38
2022/05/14 03:25:17;;;;;;;8.93;5.90;;;;;;;33.35;61.44;100849.25;5039446;28;69430;-39
2022/05/14 03:27:48;;;;;;;7.10;5.93;;;;;;;33.38;61.37;100848.78;5037300;28;67230;-39
2022/05/14 03:30:18;;;;;;;8.75;5.75;;;;;;;33.41;61.30;100850.19;5034769;28;70228;-38
2022/05/14 03:32:48;;;;;;;7.82;5.95;;;;;;;33.40;61.08;100844.97;5028585;28;66525;-39
2022/05/14 03:35:19;;;;;;;7.65;5.68;;;;;;;33.44;60.93;100851.59;5022313;28;69203;-38
2022/05/14 03:37:49;;;;;;;6.85;5.47;;;;;;;33.49;60.96;100859.84;5022657;28;66191;-40
2022/05/14 03:40:19;;;;;;;9.02;6.20;;;;;;;33.51;60.88;100846.84;5019923;28;68965;-40
2022/05/14 03:42:49;;;;;;;7.25;5.68;;;;;;;33.52;60.64;100848.53;5020580;28;65019;-38
2022/05/14 03:45:20;;;;;;;6.57;5.75;;;;;;;33.52;60.53;100843.09;5020345;28;69016;-38
2022/05/14 03:47:50;;;;;;;6.20;5.53;;;;;;;33.53;60.76;100839.31;5021303;28;65448;-40
2022/05/14 03:50:20;;;;;;;6.40;5.90;;;;;;;33.50;60.67;100831.59;5024069;28;70262;-39
2022/05/14 03:52:51;;;;;;;8.10;5.93;;;;;;;33.45;60.48;100823.34;5035050;28;66439;-38
2022/05/14 03:55:22;;;;;;;6.33;5.73;;;;;;;33.54;60.39;100843.69;5030513;28;69305;-38
2022/05/14 03:57:52;;;;;;;6.00;5.43;;;;;;;33.51;60.47;100827.81;5042832;28;65786;-39
2022/05/14 04:00:23;;;;;;;6.80;6.03;;;;;;;33.53;60.36;100828.44;5040608;28;70298;-38
2022/05/14 04:02:53;;;;;;;6.47;5.78;;;;;;;33.57;60.37;100830.44;5040359;28;65456;-37
2022/05/14 04:05:23;;;;;;;6.63;6.03;;;;;;;33.59;60.53;100832.91;5041946;28;70151;-38
2022/05/14 04:07:54;;;;;;;7.93;5.25;;;;;;;33.59;60.31;100832.91;5041241;28;66595;-39
2022/05/14 04:10:25;;;;;;;6.32;5.82;;;;;;;33.56;60.49;100822.50;5039833;28;69235;-39
2022/05/14 04:12:56;;;;;;;7.47;6.15;;;;;;;33.40;61.90;100820.50;5030842;28;66360;-39
2022/05/14 04:15:28;;;;;;;21.77;6.03;;;;;;;33.06;61.20;100812.16;5041029;28;69192;-39
2022/05/14 04:17:58;;;;;;;9.82;5.78;;;;;;;32.92;60.25;100809.63;5034986;28;65408;-40
2022/05/14 04:20:29;;;;;;;16.35;6.20;;;;;;;32.77;58.58;100824.75;5021337;28;69753;-39
2022/05/14 04:22:59;;;;;;;6.47;5.55;;;;;;;32.57;57.56;100808.75;5021571;28;66101;-41
2022/05/14 04:25:30;;;;;;;10.63;5.78;;;;;;;32.42;56.41;100806.47;5021028;28;70179;-40
2022/05/14 04:28:01;;;;;;;9.87;6.40;;;;;;;32.27;55.91;100812.34;5003994;28;67310;-41
2022/05/14 04:30:31;;;;;;;17.35;6.05;;;;;;;32.05;54.82;100785.72;5022246;28;70380;-42
2022/05/14 04:33:01;;;;;;;7.55;6.05;;;;;;;32.04;54.07;100797.66;5021653;28;66216;-43
2022/05/14 04:35:31;;;;;;;6.10;5.50;;;;;;;32.02;54.07;100797.03;5021658;28;70011;-42
2022/05/14 04:38:02;;;;;;;9.23;5.78;;;;;;;31.95;54.11;100799.00;5021331;28;66217;-42
2022/05/14 04:40:32;;;;;;;6.00;5.13;;;;;;;31.92;52.84;100791.31;5021560;28;70365;-41
2022/05/14 04:43:06;;;;;;;5.50;5.00;;;;;;;31.86;51.52;100800.34;5022049;28;65698;-41
2022/05/14 04:45:38;;;;;;;6.65;5.18;;;;;;;31.78;50.82;100784.41;5020455;28;70078;-42
2022/05/14 04:48:10;;;;;;;5.78;5.22;;;;;;;31.69;50.22;100780.34;5021890;28;65539;-40
2022/05/14 04:50:42;;;;;;;5.30;4.80;;;;;;;31.67;49.53;100777.84;5022236;28;69539;-41
2022/05/14 04:53:13;;;;;;;12.43;5.45;;;;;;;31.59;49.73;100770.88;5018700;28;65471;-41
2022/05/14 04:55:43;;;;;;;4.93;4.38;;;;;;;31.52;49.86;100759.28;5020103;28;70235;-41
2022/05/14 04:58:13;;;;;;;6.30;5.00;;;;;;;31.59;51.54;100759.19;5019768;28;66226;-41
2022/05/14 05:00:47;;;;;;;6.13;4.55;;;;;;;31.54;51.76;100754.47;5015006;28;69277;-45
2022/05/14 05:03:18;;;;;;;9.85;5.15;;;;;;;31.64;51.65;100750.38;5027038;28;65690;-42
2022/05/14 05:05:59;;;;;;;7.43;4.78;;;;;;;31.33;50.59;100695.25;5031564;28;69277;-42
2022/05/14 05:08:32;;;;;;;6.95;4.82;;;;;;;31.67;50.33;100739.88;5024310;28;65524;-41
2022/05/14 05:11:03;;;;;;;7.18;4.30;;;;;;;31.67;49.74;100748.03;5036899;28;69990;-42
2022/05/14 05:13:35;;;;;;;5.20;4.80;;;;;;;31.57;49.30;100721.47;5024014;28;67821;-41
2022/05/14 05:16:05;;;;;;;6.80;4.15;;;;;;;31.72;48.90;100731.06;5028590;28;69981;-40
2022/05/14 05:18:37;;;;;;;4.70;4.40;;;;;;;31.68;48.44;100721.72;5022698;28;67192;-40
2022/05/14 05:21:08;;;;;;;6.18;4.40;;;;;;;31.57;47.90;100702.50;5029829;28;70088;-42
2022/05/14 05:23:38;;;;;;;4.35;4.05;;;;;;;31.71;47.32;100721.28;5054028;28;66468;-42
2022/05/14 05:26:08;;;;;;;5.10;4.22;;;;;;;31.70;47.53;100715.03;5010673;28;69247;-41
2022/05/14 05:28:39;;;;;;;4.60;4.20;;;;;;;31.71;46.99;100708.56;5034685;28;67018;-42
2022/05/14 05:31:09;;;;;;;6.38;4.85;;;;;;;31.70;46.37;100704.16;5034711;28;70146;-42
2022/05/14 05:33:39;;;;;;;7.97;3.83;;;;;;;31.74;46.11;100712.69;5036596;28;66507;-43
2022/05/14 05:36:09;;;;;;;3.88;3.58;;;;;;;31.91;47.46;100700.16;5026811;28;70854;-41
2022/05/14 05:38:39;;;;;;;6.63;4.25;;;;;;;31.89;45.78;100694.09;5021880;28;66165;-41
2022/05/14 05:41:09;;;;;;;8.25;3.65;;;;;;;31.97;45.11;100684.84;5003369;28;68927;-41
2022/05/14 05:43:40;;;;;;;3.70;3.40;;;;;;;31.94;44.28;100696.97;5021211;28;65924;-42
2022/05/14 05:46:11;;;;;;;7.63;4.20;;;;;;;31.90;44.67;100700.34;5020738;28;69919;-44
2022/05/14 05:48:42;;;;;;;4.53;4.13;;;;;;;31.96;44.67;100684.03;5021182;28;67084;-43
2022/05/14 05:51:13;;;;;;;4.47;4.07;;;;;;;31.91;44.09;100685.75;5021108;28;69896;-43
2022/05/14 05:56:47;;;;;;;4.25;3.85;;;;;;;31.89;43.69;100687.84;5028674;28;69943;-41
2022/05/14 05:59:18;;;;;;;6.63;4.88;;;;;;;31.89;44.33;100671.56;5037222;28;66186;-41
2022/05/14 06:01:50;;;;;;;9.65;4.60;;;;;;;31.94;45.26;100669.84;5022438;28;69697;-38
2022/05/14 06:04:21;;;;;;;9.93;4.00;;;;;;;31.94;44.72;100675.28;5026269;28;66429;-39
2022/05/14 06:06:51;;;;;;;4.85;4.20;;;;;;;31.95;44.90;100665.25;5029848;28;70015;-39
2022/05/14 06:09:25;;;;;;;6.47;3.95;;;;;;;31.89;44.42;100666.97;5025764;28;68132;-40
2022/05/14 06:11:56;;;;;;;9.15;4.32;;;;;;;31.95;44.78;100671.50;5026350;28;69168;-39
2022/05/14 06:14:26;;;;;;;5.15;4.22;;;;;;;31.89;44.39;100656.13;5031560;28;66334;-39
2022/05/14 06:16:57;;;;;;;4.25;3.95;;;;;;;31.95;44.67;100657.09;5026439;28;70263;-40
2022/05/14 06:19:27;;;;;;;5.60;4.07;;;;;;;31.92;44.26;100655.69;5029713;28;65642;-40
2022/05/14 06:21:57;;;;;;;11.90;4.80;;;;;;;31.87;44.45;100650.09;5034866;28;69986;-40
2022/05/14 06:24:27;;;;;;;11.68;4.20;;;;;;;31.78;45.05;100621.66;5040805;28;65692;-40
2022/05/14 06:26:57;;;;;;;5.40;4.28;;;;;;;31.72;44.69;100607.16;5038907;28;69341;-41
2022/05/14 06:29:29;;;;;;;4.72;4.32;;;;;;;31.85;45.15;100627.81;5038052;28;66221;-41
2022/05/14 06:31:59;;;;;;;3.97;3.67;;;;;;;31.80;44.56;100619.56;5041172;28;69934;-40
2022/05/14 06:34:30;;;;;;;5.32;4.90;;;;;;;31.78;44.04;100608.94;5041513;28;66664;-41
2022/05/14 06:37:00;;;;;;;4.68;4.18;;;;;;;31.46;43.83;100562.31;5037788;28;69313;-41
2022/05/14 06:39:31;;;;;;;4.82;4.43;;;;;;;31.74;43.20;100601.50;5039562;28;66545;-41
2022/05/14 06:42:02;;;;;;;5.07;4.68;;;;;;;31.78;43.36;100608.09;5023157;28;69765;-40
2022/05/14 06:44:38;;;;;;;4.45;3.95;;;;;;;31.68;43.14;100578.00;5036895;28;65638;-42
2022/05/14 06:47:08;;;;;;;7.32;3.97;;;;;;;31.72;43.17;100585.47;5040606;28;70296;-41
2022/05/14 06:49:38;;;;;;;7.20;4.20;;;;;;;31.82;43.61;100585.72;5040980;28;65606;-41
2022/05/14 06:52:13;;;;;;;8.65;4.10;;;;;;;31.77;42.72;100576.63;5037517;28;69102;-42
2022/05/14 06:54:45;;;;;;;4.70;3.95;;;;;;;31.38;42.91;100503.00;5040118;28;66541;-40
2022/05/14 06:57:16;;;;;;;4.72;3.90;;;;;;;31.81;42.68;100577.81;5039475;28;70305;-41
2022/05/14 06:59:46;;;;;;;4.30;4.00;;;;;;;31.81;43.06;100575.09;5038599;28;65985;-42
2022/05/14 07:02:18;;;;;;;7.80;4.18;;;;;;;31.77;42.04;100560.34;5037898;28;69458;-40
2022/05/14 07:07:37;;;;;;;4.78;3.65;;;;;;;31.73;42.07;100542.88;5039015;28;69213;-43
2022/05/14 07:10:07;;;;;;;7.57;4.25;;;;;;;31.86;41.47;100548.09;5040871;28;64167;-43
2022/05/14 07:12:38;;;;;;;4.22;3.92;;;;;;;31.76;41.71;100531.56;5041159;28;69807;-43
2022/05/14 07:15:09;;;;;;;4.03;3.67;;;;;;;31.86;41.69;100542.66;5043151;28;66277;-46
2022/05/14 07:17:41;;;;;;;5.63;4.03;;;;;;;31.89;41.63;100547.63;5024790;28;69254;-42
2022/05/14 07:20:12;;;;;;;3.90;3.60;;;;;;;31.56;41.24;100478.50;5043759;28;66348;-40
2022/05/14 07:22:42;;;;;;;8.93;4.85;;;;;;;31.91;41.08;100540.13;5044068;28;70679;-42
2022/05/14 07:25:12;;;;;;;7.35;3.70;;;;;;;31.92;41.39;100541.75;5042334;28;66473;-43
2022/05/14 07:27:43;;;;;;;4.10;3.60;;;;;;;31.95;41.37;100541.28;5042406;28;69835;-42
2022/05/14 07:30:13;;;;;;;5.90;3.83;;;;;;;31.91;41.70;100517.56;5058778;28;64954;-41
2022/05/14 07:32:44;;;;;;;4.68;4.28;;;;;;;31.92;41.19;100514.63;5043056;28;69870;-40
2022/05/14 07:35:15;;;;;;;4.37;4.07;;;;;;;31.92;40.62;100511.09;5043844;28;65575;-42
2022/05/14 07:37:50;;;;;;;6.78;4.43;;;;;;;31.61;40.53;100453.41;5043700;28;70089;-43
2022/05/14 07:40:25;;;;;;;4.82;4.53;;;;;;;31.92;40.54;100486.69;5038404;28;66337;-43
2022/05/14 07:43:01;;;;;;;5.35;4.28;;;;;;;32.00;40.62;100487.16;5028373;28;70414;-41
2022/05/14 07:45:47;;;;;;;4.68;4.38;;;;;;;31.89;40.53;100466.25;5022718;28;65780;-41
2022/05/14 07:48:22;;;;;;;4.15;3.83;;;;;;;31.66;40.92;100423.69;5023542;28;70125;-42
2022/05/14 07:50:53;;;;;;;5.10;4.70;;;;;;;31.96;40.78;100467.00;5022888;28;66757;-41
2022/05/14 07:53:23;;;;;;;4.70;4.38;;;;;;;32.02;40.92;100474.16;5023373;28;69530;-42
2022/05/14 07:55:53;;;;;;;6.90;4.30;;;;;;;32.02;42.41;100459.78;5034603;28;66145;-42
2022/05/14 07:58:26;;;;;;;10.02;4.13;;;;;;;32.06;41.95;100460.94;5031693;28;69471;-40
2022/05/14 08:00:57;;;;;;;8.98;4.82;;;;;;;32.10;42.02;100466.75;5029517;28;66590;-41
2022/05/14 08:03:27;;;;;;;8.02;4.60;;;;;;;31.79;41.42;100419.94;5033983;28;69825;-43
2022/05/14 08:05:58;;;;;;;7.13;4.53;;;;;;;32.15;41.47;100462.25;5035357;28;67010;-41
2022/05/14 08:08:29;;;;;;;8.68;4.63;;;;;;;32.13;41.40;100458.13;5035848;28;70159;-43
2022/05/14 08:11:00;;;;;;;5.13;4.30;;;;;;;32.17;42.45;100453.84;5030696;28;65836;-40
2022/05/14 08:13:34;;;;;;;9.80;4.75;;;;;;;32.21;41.42;100453.16;5028773;28;70711;-43
2022/05/14 08:16:05;;;;;;;5.68;4.60;;;;;;;32.23;41.58;100444.75;5036691;28;64926;-42
2022/05/14 08:18:36;;;;;;;10.77;4.70;;;;;;;32.23;42.49;100450.19;5029998;28;69786;-43
2022/05/14 08:26:43;;;;;;;6.28;5.35;;;;;;;32.40;56.17;100431.25;5032211;28;66504;-42
2022/05/14 08:29:14;;;;;;;41.42;6.65;;;;;;;32.50;58.09;100423.34;5038723;28;69246;-38
2022/05/14 08:31:44;;;;;;;28.42;7.45;;;;;;;32.67;59.88;100426.09;5042492;28;66544;-42
2022/05/14 08:34:18;;;;;;;16.85;6.70;;;;;;;32.91;59.69;100430.34;5032168;28;69809;-41
2022/05/14 08:36:49;;;;;;;22.73;7.20;;;;;;;33.05;59.77;100427.34;5039713;28;65970;-42
2022/05/14 08:39:21;;;;;;;18.55;6.97;;;;;;;33.18;59.97;100424.28;5041155;28;70363;-42
2022/05/14 08:41:53;;;;;;;18.45;8.18;;;;;;;33.32;61.20;100424.78;5041562;28;65821;-42
2022/05/14 08:44:27;;;;;;;16.05;7.82;;;;;;;33.41;61.42;100422.50;5035284;28;69663;-43
2022/05/14 08:47:06;;;;;;;16.65;7.80;;;;;;;33.10;60.81;100345.91;5020323;28;66259;-43
2022/05/14 08:49:49;;;;;;;29.25;8.00;;;;;;;33.55;60.98;100408.31;5020332;28;70114;-43
2022/05/14 08:52:23;;;;;;;24.98;11.73;;;;;;;33.70;60.55;100418.59;5022286;28;66360;-42
2022/05/14 08:55:01;;;;;;;16.80;11.55;;;;;;;33.77;62.30;100429.31;5019588;28;69862;-41
2022/05/14 08:58:01;;;;;;;12.77;10.57;;;;;;;33.30;62.81;100362.53;5023608;28;66376;-41
2022/05/14 09:00:32;;;;;;;18.33;10.25;;;;;;;33.92;62.77;100436.84;5039612;28;70515;-41
2022/05/14 09:03:02;;;;;;;22.65;9.95;;;;;;;33.98;62.49;100439.38;5033890;28;66526;-42
2022/05/14 09:05:35;;;;;;;20.70;11.10;;;;;;;33.59;64.30;100373.28;5041452;28;69537;-41
2022/05/14 09:08:06;;;;;;;25.05;10.80;;;;;;;34.06;64.15;100446.31;5042026;28;65574;-42
2022/05/14 09:10:40;;;;;;;22.50;11.03;;;;;;;34.05;64.10;100443.84;5057728;28;69075;-41
2022/05/14 09:13:18;;;;;;;21.27;10.23;;;;;;;34.10;64.21;100446.63;5041061;28;66918;-42
2022/05/14 09:15:57;;;;;;;15.73;9.52;;;;;;;34.14;64.19;100454.03;5041633;28;70015;-43
2022/05/14 09:18:30;;;;;;;16.88;11.18;;;;;;;34.08;64.51;100441.44;5038066;28;65474;-41
2022/05/14 09:21:08;;;;;;;24.77;10.75;;;;;;;34.17;64.63;100469.84;5042232;28;69627;-41
2022/05/14 09:23:38;;;;;;;17.73;10.35;;;;;;;34.20;64.69;100463.91;5029693;28;66351;-42
2022/05/14 09:26:14;;;;;;;26.42;10.30;;;;;;;33.64;64.11;100381.50;5036685;28;70670;-44
2022/05/14 09:29:01;;;;;;;14.73;9.68;;;;;;;34.22;64.41;100478.09;5021198;28;66011;-43
2022/05/14 09:31:36;;;;;;;14.02;9.30;;;;;;;33.75;64.21;100391.47;5026833;28;69012;-44
2022/05/14 09:34:13;;;;;;;17.25;9.85;;;;;;;34.19;64.21;100456.81;5035214;28;67040;-43
2022/05/14 09:36:48;;;;;;;12.93;9.13;;;;;;;33.96;63.90;100408.88;5040249;28;69149;-43
2022/05/14 09:39:23;;;;;;;13.02;8.32;;;;;;;33.84;64.39;100382.84;5040100;28;66211;-43
2022/05/14 09:41:57;;;;;;;16.58;9.10;;;;;;;33.95;64.20;100400.97;5041456;28;69102;-44
2022/05/14 09:44:34;;;;;;;15.15;8.23;;;;;;;33.94;63.46;100393.88;5037494;28;66411;-42
2022/05/14 09:47:11;;;;;;;14.63;8.95;;;;;;;34.08;63.04;100408.78;5022479;28;69619;-42
2022/05/14 09:49:54;;;;;;;13.85;7.55;;;;;;;34.16;62.89;100419.22;5033253;28;66618;-43
2022/05/14 09:52:28;;;;;;;13.75;8.48;;;;;;;34.64;62.19;100482.97;5032704;28;70113;-43
2022/05/14 09:55:03;;;;;;;22.98;12.25;;;;;;;34.33;62.31;100413.69;5038769;28;65650;-43
2022/05/14 09:57:53;;;;;;;20.90;10.43;;;;;;;34.85;61.44;100475.00;5040759;28;70327;-42
2022/05/14 10:00:29;;;;;;;15.23;9.43;;;;;;;34.85;61.10;100473.13;5022698;28;66347;-42
2022/05/14 10:03:27;;;;;;;18.88;8.38;;;;;;;34.91;60.38;100484.91;5120122;27;44480;-42
2022/05/14 10:06:33;;;;;;;12.65;8.18;;;;;;;34.96;60.84;100492.28;5117223;27;70202;-42
2022/05/14 10:09:35;;;;;;;17.52;8.90;;;;;;;34.59;62.01;100504.72;5079084;27;66248;-42
2022/05/14 10:12:34;;;;;;;12.18;8.73;;;;;;;34.44;62.47;100513.50;5073400;27;69604;-40
2022/05/14 10:15:04;;;;;;;11.10;8.13;;;;;;;34.50;63.03;100547.06;5087850;27;65574;-41
2022/05/14 10:17:44;;;;;;;14.45;8.88;;;;;;;33.64;63.63;100419.59;5059045;28;70162;-42
2022/05/14 10:20:35;;;;;;;17.95;9.80;;;;;;;34.30;64.61;100544.06;5078384;28;65609;-41
2022/05/14 10:29:00;;;;;;;16.25;8.25;;;;;;;34.24;65.20;100530.41;5077921;27;69958;-42
2022/05/14 10:31:30;;;;;;;10.15;8.00;;;;;;;34.22;65.64;100529.00;5078591;27;66382;-43
2022/05/14 10:34:07;;;;;;;14.23;9.23;;;;;;;33.75;67.37;100437.69;5079996;27;70124;-44
2022/05/14 10:36:49;;;;;;;15.18;9.65;;;;;;;33.78;67.01;100449.97;5095053;27;66747;-42
2022/05/14 10:39:48;;;;;;;;;;;;;;;33.91;68.17;100500.50;5098007;27;70105;-43
2022/05/14 10:42:33;;;;;;;11.95;9.25;;;;;;;34.11;66.88;100519.88;5084225;27;67095;-42
2022/05/14 10:45:12;;;;;;;11.20;9.85;;;;;;;33.71;66.53;100471.94;5090465;27;69997;-41
2022/05/14 10:47:48;;;;;;;13.30;10.57;;;;;;;34.08;65.56;100546.78;5086736;27;65784;-44
2022/05/14 10:50:21;;;;;;;10.48;9.48;;;;;;;34.00;64.34;100539.81;5083087;27;70272;-42
2022/05/14 10:52:54;;;;;;;12.85;10.13;;;;;;;33.99;64.53;100533.56;5087501;27;66816;-43
2022/05/14 10:55:30;;;;;;;13.85;9.35;;;;;;;33.53;64.68;100464.84;5091708;27;70162;-40
2022/05/14 10:58:07;;;;;;;10.57;9.45;;;;;;;33.53;64.38;100458.59;5096658;27;65109;-44
2022/05/14 11:00:43;;;;;;;20.88;9.63;;;;;;;33.92;65.17;100532.06;5075830;27;69565;-40
2022/05/14 11:03:29;;;;;;;12.85;9.30;;;;;;;33.86;63.96;100528.47;5080825;27;66546;-41
2022/05/14 11:06:02;;;;;;;18.35;9.32;;;;;;;33.84;62.83;100513.44;5095334;27;70393;-41
2022/05/14 11:08:34;;;;;;;12.98;9.02;;;;;;;33.78;62.20;100526.97;5090293;27;64877;-42
2022/05/14 11:11:10;;;;;;;9.48;8.43;;;;;;;33.78;62.07;100548.75;5089753;27;69400;-40
2022/05/14 11:13:41;;;;;;;9.88;8.15;;;;;;;33.74;62.47;100547.59;5079494;27;66748;-40
2022/05/14 11:16:13;;;;;;;11.45;8.10;;;;;;;33.37;61.69;100493.66;5076904;27;69336;-41
2022/05/14 11:18:53;;;;;;;12.60;8.90;;;;;;;33.65;61.22;100565.38;5085985;27;65015;-42
2022/05/14 11:21:37;;;;;;;20.23;9.02;;;;;;;33.20;61.99;100490.09;5053707;28;70404;-43
2022/05/14 11:24:11;;;;;;;9.23;8.30;;;;;;;33.57;63.50;100547.59;5068178;28;65766;-42
2022/05/14 11:26:53;;;;;;;12.60;8.38;;;;;;;33.24;64.47;100499.44;5082650;28;69240;-44
2022/05/14 11:29:27;;;;;;;10.55;8.40;;;;;;;33.30;64.05;100495.72;5081761;27;66498;-43
2022/05/14 11:32:17;;;;;;;12.38;7.78;;;;;;;33.57;64.66;100549.47;5080388;28;69341;-44
2022/05/14 11:34:58;;;;;;;8.27;7.22;;;;;;;33.74;64.81;100576.66;5081350;28;66197;-45
2022/05/14 11:37:34;;;;;;;9.90;7.35;;;;;;;33.37;64.88;100520.84;5079524;28;71000;-43
2022/05/14 11:40:12;;;;;;;9.02;7.90;;;;;;;33.83;64.86;100607.03;5080938;28;65687;-43
2022/05/14 11:42:46;;;;;;;10.98;7.82;;;;;;;33.43;65.11;100545.41;5080528;27;69477;-44
2022/05/14 11:45:21;;;;;;;8.63;7.53;;;;;;;33.43;64.82;100539.97;5080147;28;66356;-44
2022/05/14 11:48:25;;;;;;;8.18;7.38;;;;;;;33.71;65.27;100598.94;5080763;27;70279;-44
2022/05/14 11:51:18;;;;;;;8.90;8.10;;;;;;;33.68;65.36;100580.38;5074802;28;66288;-44
2022/05/14 11:53:55;;;;;;;8.35;7.65;;;;;;;33.44;65.24;100541.63;5081859;27;70110;-43
2022/05/14 11:56:48;;;;;;;8.57;7.70;;;;;;;33.74;65.17;100612.88;5080737;28;66264;-45
2022/05/14 11:59:37;;;;;;;16.00;8.63;;;;;;;33.32;64.63;100545.25;5060665;28;70261;-43
2022/05/14 12:02:22;;;;;;;8.68;7.90;;;;;;;33.79;65.30;100632.03;5059963;28;66485;-43
2022/05/14 12:04:57;;;;;;;10.00;8.68;;;;;;;33.79;65.36;100632.03;5061449;28;70440;-43
2022/05/14 12:07:49;;;;;;;10.05;9.07;;;;;;;33.73;65.27;100643.84;5073345;28;66282;-43
2022/05/14 12:10:51;;;;;;;12.10;9.15;;;;;;;33.75;65.17;100630.84;5079547;28;70434;-46
2022/05/14 12:13:54;;;;;;;9.38;8.57;;;;;;;33.75;65.26;100636.28;5081833;27;66420;-44
2022/05/14 12:16:50;;;;;;;14.60;9.10;;;;;;;33.71;65.37;100640.59;5081957;27;70194;-45
2022/05/14 12:19:24;;;;;;;9.52;8.73;;;;;;;33.56;65.12;100608.47;5055217;28;64999;-43